Terminal Aerodrome Forecast
Issued by NWS

Home | Current Version | Previous Version | Text Only | Print | Product List | Glossary Off
Versions: 1 2 3 4 5 6 7 8 9 10 11 12 13 14 15 16 17

000
FTUS43 KICT 231720
TAFSLN
TAF
KSLN 231720Z 2318/2418 36015G22KT P6SM VCSH BKN090
     FM232300 35014KT P6SM SCT120
     FM240200 35008KT P6SM SKC
     FM240700 32004KT P6SM SKC
     FM241500 02004KT P6SM FEW200=

USA.gov is the U.S. government's official web portal to all federal, state and local government web resources and services.